createdAt,value
2018-07-24T00:02:19.913Z,59.20
2018-07-24T00:04:48.182Z,59.00
2018-07-24T00:07:16.428Z,59.10
2018-07-24T00:09:44.685Z,59.20
2018-07-24T00:12:13.042Z,59.10
2018-07-24T00:14:41.263Z,59.70
2018-07-24T00:17:09.528Z,59.40
2018-07-24T00:19:37.761Z,59.80
2018-07-24T00:22:06.387Z,59.80
2018-07-24T00:24:34.700Z,59.50
2018-07-24T00:27:03.492Z,59.60
2018-07-24T00:29:31.726Z,60.00
2018-07-24T00:31:59.958Z,59.80
2018-07-24T00:34:28.218Z,59.90
2018-07-24T00:36:56.439Z,60.10
2018-07-24T00:39:24.708Z,60.00
2018-07-24T00:41:52.958Z,60.10
2018-07-24T00:44:21.242Z,60.20
2018-07-24T00:46:49.446Z,60.30
2018-07-24T00:49:17.767Z,60.40
2018-07-24T00:51:46.270Z,60.30
2018-07-24T00:54:14.577Z,60.40
2018-07-24T00:56:42.816Z,60.80
2018-07-24T00:59:11.984Z,60.80
2018-07-24T01:01:40.481Z,60.70
2018-07-24T01:04:08.710Z,60.50
2018-07-24T01:06:36.964Z,60.40
2018-07-24T01:09:07.589Z,60.50
2018-07-24T01:11:35.901Z,61.60
2018-07-24T01:14:04.188Z,60.80
2018-07-24T01:16:32.516Z,61.20
2018-07-24T01:19:00.737Z,61.30
2018-07-24T01:21:29.072Z,61.20
2018-07-24T01:23:57.304Z,61.40
2018-07-24T01:26:25.560Z,61.40
2018-07-24T01:28:53.793Z,61.60
2018-07-24T01:31:22.069Z,61.70
2018-07-24T01:33:50.398Z,61.30
2018-07-24T01:36:18.671Z,61.50
2018-07-24T01:38:46.928Z,61.20
2018-07-24T01:41:15.215Z,61.40
2018-07-24T01:43:43.456Z,61.80
2018-07-24T01:46:11.875Z,62.00
2018-07-24T01:48:40.104Z,62.00
2018-07-24T01:51:08.560Z,62.20
2018-07-24T01:53:36.829Z,62.10
2018-07-24T01:56:05.099Z,62.40
2018-07-24T01:58:33.372Z,62.30
2018-07-24T02:01:03.016Z,62.50
2018-07-24T02:03:32.210Z,62.30
2018-07-24T02:06:00.896Z,62.40
2018-07-24T02:08:29.182Z,62.50
2018-07-24T02:10:57.462Z,62.70
2018-07-24T02:13:25.717Z,62.70
2018-07-24T02:15:53.979Z,63.10
2018-07-24T02:18:22.413Z,63.70
2018-07-24T02:20:50.664Z,63.80
2018-07-24T02:23:19.136Z,63.40
2018-07-24T02:25:47.484Z,63.40
2018-07-24T02:28:15.943Z,62.90
2018-07-24T02:30:44.207Z,63.10
2018-07-24T02:33:13.300Z,63.20
2018-07-24T02:35:41.780Z,63.40
2018-07-24T02:38:10.015Z,63.10
2018-07-24T02:40:38.365Z,63.60
2018-07-24T02:43:06.809Z,63.90
2018-07-24T02:45:35.043Z,63.90
2018-07-24T02:48:03.314Z,63.80
2018-07-24T02:50:31.615Z,63.90
2018-07-24T02:52:59.853Z,63.80
2018-07-24T02:55:28.095Z,63.60
2018-07-24T02:57:56.385Z,63.50
2018-07-24T03:00:24.614Z,63.80
2018-07-24T03:02:52.865Z,63.60
2018-07-24T03:05:21.126Z,63.40
2018-07-24T03:07:49.379Z,63.10
2018-07-24T03:10:17.698Z,63.40
2018-07-24T03:15:14.093Z,63.80
2018-07-24T03:17:42.480Z,63.80
2018-07-24T03:20:11.709Z,63.60
2018-07-24T03:22:39.933Z,64.00
2018-07-24T03:25:08.221Z,64.00
2018-07-24T03:27:36.526Z,64.10
2018-07-24T03:30:05.420Z,64.20
2018-07-24T03:32:34.033Z,64.80
2018-07-24T03:35:02.283Z,64.70
2018-07-24T03:37:30.691Z,64.60
2018-07-24T03:39:58.948Z,64.70
2018-07-24T03:42:27.240Z,64.50
2018-07-24T03:44:55.492Z,65.30
2018-07-24T03:47:23.778Z,64.40
2018-07-24T03:49:52.033Z,64.80
2018-07-24T03:52:20.382Z,64.80
2018-07-24T03:54:48.602Z,64.10
2018-07-24T03:57:16.920Z,64.70
2018-07-24T03:59:45.198Z,64.80
2018-07-24T04:02:13.516Z,65.30
2018-07-24T04:04:41.780Z,65.10
2018-07-24T04:07:10.037Z,64.90
2018-07-24T04:09:38.404Z,65.00
2018-07-24T04:12:06.658Z,64.90
2018-07-24T04:14:34.880Z,64.20
2018-07-24T04:17:03.330Z,64.00
2018-07-24T04:19:31.590Z,64.60
2018-07-24T04:21:59.867Z,64.80
2018-07-24T04:24:28.171Z,64.60
2018-07-24T04:26:56.617Z,64.50
2018-07-24T04:29:24.861Z,65.10
2018-07-24T04:31:53.180Z,65.00
2018-07-24T04:34:21.428Z,65.20
2018-07-24T04:36:49.681Z,64.90
2018-07-24T04:39:17.958Z,64.90
2018-07-24T04:41:46.244Z,64.60
2018-07-24T04:44:14.497Z,64.90
2018-07-24T04:46:42.815Z,64.90
2018-07-24T04:49:11.122Z,65.10
2018-07-24T04:51:39.353Z,65.20
2018-07-24T04:54:07.688Z,65.20
2018-07-24T04:56:35.937Z,66.00
2018-07-24T04:59:04.227Z,65.20
2018-07-24T05:01:32.554Z,65.30
2018-07-24T05:06:28.817Z,65.40
2018-07-24T05:08:57.078Z,65.40
2018-07-24T05:11:25.373Z,65.50
2018-07-24T05:13:53.632Z,65.70
2018-07-24T05:16:21.897Z,65.60
2018-07-24T05:18:50.211Z,65.50
2018-07-24T05:21:18.461Z,65.30
2018-07-24T05:23:46.715Z,65.00
2018-07-24T05:26:14.942Z,64.80
2018-07-24T05:28:43.234Z,64.70
2018-07-24T05:31:11.858Z,65.10
2018-07-24T05:33:40.115Z,65.20
2018-07-24T05:36:08.378Z,64.70
2018-07-24T05:38:36.656Z,64.30
2018-07-24T05:41:04.901Z,63.80
2018-07-24T05:43:33.134Z,63.70
2018-07-24T05:46:01.402Z,63.40
2018-07-24T05:48:29.701Z,63.20
2018-07-24T05:50:57.941Z,62.60
2018-07-24T05:53:26.169Z,60.30
2018-07-24T05:55:54.587Z,57.70
2018-07-24T05:58:22.826Z,55.40
2018-07-24T06:00:51.064Z,54.00
2018-07-24T06:03:19.354Z,52.80
2018-07-24T06:05:47.631Z,51.10
2018-07-24T06:08:15.936Z,51.00
2018-07-24T06:10:44.175Z,50.30
2018-07-24T06:13:12.457Z,49.60
2018-07-24T06:15:40.725Z,49.00
2018-07-24T06:18:08.964Z,48.60
2018-07-24T06:20:37.222Z,48.30
2018-07-24T06:23:06.054Z,48.00
2018-07-24T06:25:34.294Z,48.30
2018-07-24T06:28:02.581Z,49.20
2018-07-24T06:30:30.891Z,50.30
2018-07-24T06:32:59.211Z,50.90
2018-07-24T06:35:27.457Z,50.70
2018-07-24T06:37:55.718Z,50.90
2018-07-24T06:42:51.966Z,50.30
2018-07-24T06:45:20.244Z,50.50
2018-07-24T06:47:48.566Z,50.60
2018-07-24T06:50:16.800Z,50.90
2018-07-24T06:52:45.390Z,51.10
2018-07-24T06:55:13.670Z,51.60
2018-07-24T06:57:41.889Z,50.90
2018-07-24T07:00:10.411Z,49.80
2018-07-24T07:02:38.666Z,48.30
2018-07-24T07:05:07.143Z,47.60
2018-07-24T07:07:35.501Z,49.30
2018-07-24T07:10:03.714Z,49.50
2018-07-24T07:12:31.969Z,48.60
2018-07-24T07:15:00.227Z,48.60
2018-07-24T07:17:28.449Z,46.90
2018-07-24T07:19:57.076Z,46.00
2018-07-24T07:22:25.862Z,47.50
2018-07-24T07:24:54.141Z,47.60
2018-07-24T07:27:22.400Z,47.60
2018-07-24T07:29:50.681Z,47.50
2018-07-24T07:32:19.031Z,46.90
2018-07-24T07:34:47.278Z,47.50
2018-07-24T07:37:15.590Z,47.70
2018-07-24T07:39:43.856Z,47.80
2018-07-24T07:42:12.353Z,47.60
2018-07-24T07:44:40.592Z,48.30
2018-07-24T07:47:08.901Z,48.70
2018-07-24T07:49:37.169Z,48.40
2018-07-24T07:52:05.469Z,48.60
2018-07-24T07:54:33.709Z,49.10
2018-07-24T07:57:01.939Z,48.30
2018-07-24T07:59:30.195Z,47.80
2018-07-24T08:01:58.473Z,47.80
2018-07-24T08:04:26.813Z,48.00
2018-07-24T08:06:55.017Z,47.70
2018-07-24T08:09:23.347Z,47.90
2018-07-24T08:11:51.651Z,46.30
2018-07-24T08:14:19.902Z,46.50
2018-07-24T08:16:48.181Z,46.50
2018-07-24T08:19:16.446Z,45.30
2018-07-24T08:21:44.710Z,45.20
2018-07-24T08:24:13.077Z,45.20
2018-07-24T08:26:41.342Z,43.50
2018-07-24T08:29:09.593Z,44.60
2018-07-24T08:31:37.858Z,43.90
2018-07-24T08:34:06.357Z,43.50
2018-07-24T08:36:34.600Z,42.10
2018-07-24T08:41:30.844Z,43.40
2018-07-24T08:43:59.109Z,42.80
2018-07-24T08:46:27.667Z,41.80
2018-07-24T08:48:55.937Z,41.30
2018-07-24T08:51:24.232Z,40.80
2018-07-24T08:53:52.826Z,40.80
2018-07-24T08:58:48.947Z,40.60
2018-07-24T09:01:17.642Z,37.50
2018-07-24T09:03:45.941Z,40.60
2018-07-24T09:06:14.144Z,38.70
2018-07-24T09:08:42.420Z,40.10
2018-07-24T09:11:10.650Z,39.40
2018-07-24T09:13:39.066Z,39.30
2018-07-24T09:16:07.358Z,38.90
2018-07-24T09:18:35.601Z,36.40
2018-07-24T09:21:10.490Z,37.30
2018-07-24T09:23:38.747Z,37.10
2018-07-24T09:26:07.389Z,37.80
2018-07-24T09:28:35.666Z,38.20
2018-07-24T09:31:03.941Z,38.30
2018-07-24T09:33:32.187Z,37.60
2018-07-24T09:36:00.453Z,37.30
2018-07-24T09:38:28.716Z,36.70
2018-07-24T09:40:56.952Z,36.90
2018-07-24T09:43:25.419Z,35.90
2018-07-24T09:45:53.690Z,36.60
2018-07-24T09:48:21.949Z,37.30
2018-07-24T09:50:50.183Z,37.10
2018-07-24T09:53:18.784Z,37.20
2018-07-24T09:55:47.013Z,36.10
2018-07-24T09:58:15.316Z,36.80
2018-07-24T10:00:48.841Z,36.80
2018-07-24T10:03:17.118Z,36.70
2018-07-24T10:05:45.397Z,35.80
2018-07-24T10:08:13.726Z,35.90
2018-07-24T10:10:41.964Z,35.60
2018-07-24T10:13:10.313Z,35.50
2018-07-24T10:15:38.559Z,35.40
2018-07-24T10:18:06.815Z,34.80
2018-07-24T10:20:35.097Z,35.20
2018-07-24T10:23:03.443Z,34.30
2018-07-24T10:25:31.746Z,36.00
2018-07-24T10:28:00.144Z,36.80
2018-07-24T10:30:28.462Z,36.40
2018-07-24T10:32:56.663Z,36.20
2018-07-24T10:35:24.954Z,36.80
2018-07-24T10:37:53.214Z,36.80
2018-07-24T10:40:28.332Z,36.80
2018-07-24T10:42:56.660Z,36.70
2018-07-24T10:45:25.797Z,36.70
2018-07-24T10:47:54.287Z,36.70
2018-07-24T10:50:22.572Z,36.00
2018-07-24T10:52:51.044Z,36.20
2018-07-24T10:55:19.282Z,36.30
2018-07-24T10:57:48.073Z,37.30
2018-07-24T11:00:16.309Z,37.70
2018-07-24T11:02:44.582Z,37.50
2018-07-24T11:07:40.998Z,37.50
2018-07-24T11:10:09.362Z,36.90
2018-07-24T11:12:37.623Z,37.60
2018-07-24T11:15:05.927Z,37.20
2018-07-24T11:17:34.221Z,37.30
2018-07-24T11:20:02.467Z,37.60
2018-07-24T11:22:30.762Z,37.60
2018-07-24T11:24:58.990Z,37.70
2018-07-24T11:27:27.340Z,35.90
2018-07-24T11:29:55.575Z,36.10
2018-07-24T11:32:23.872Z,36.40
2018-07-24T11:34:52.097Z,35.10
2018-07-24T11:37:20.351Z,36.80
2018-07-24T11:39:48.631Z,36.30
2018-07-24T11:42:16.901Z,37.10
2018-07-24T11:44:45.200Z,37.10
2018-07-24T11:47:13.449Z,36.70
2018-07-24T11:49:41.720Z,36.20
2018-07-24T11:52:10.007Z,36.30
2018-07-24T11:54:38.365Z,36.60
2018-07-24T11:59:34.883Z,35.70
2018-07-24T12:02:03.174Z,35.60
2018-07-24T12:04:31.752Z,37.40
2018-07-24T12:07:00.002Z,37.60
2018-07-24T12:09:28.332Z,37.30
2018-07-24T12:11:56.677Z,38.80
2018-07-24T12:14:25.002Z,38.30
2018-07-24T12:16:53.606Z,38.30
2018-07-24T12:19:21.831Z,38.40
2018-07-24T12:21:50.158Z,38.30
2018-07-24T12:24:18.435Z,38.90
2018-07-24T12:26:47.402Z,40.60
2018-07-24T12:29:15.805Z,40.90
2018-07-24T12:31:44.068Z,40.90
2018-07-24T12:34:12.326Z,40.60
2018-07-24T12:36:40.570Z,40.40
2018-07-24T12:39:10.693Z,40.70
2018-07-24T12:41:39.062Z,40.20
2018-07-24T12:44:07.508Z,40.20
2018-07-24T12:46:36.092Z,40.20
2018-07-24T12:49:04.810Z,41.30
2018-07-24T12:51:33.092Z,40.80
2018-07-24T12:54:01.397Z,40.70
2018-07-24T12:56:29.706Z,40.90
2018-07-24T12:58:57.976Z,41.10
2018-07-24T13:01:26.334Z,40.50
2018-07-24T13:06:22.640Z,40.40
2018-07-24T13:08:51.326Z,40.70
2018-07-24T13:11:19.574Z,40.40
2018-07-24T13:13:47.929Z,40.10
2018-07-24T13:16:17.909Z,41.30
2018-07-24T13:18:46.157Z,40.30
2018-07-24T13:21:14.540Z,40.00
2018-07-24T13:23:42.816Z,40.60
2018-07-24T13:26:12.102Z,41.00
2018-07-24T13:28:40.569Z,41.00
2018-07-24T13:31:08.822Z,41.00
2018-07-24T13:33:37.113Z,39.80
2018-07-24T13:36:05.363Z,39.50
2018-07-24T13:38:33.640Z,40.40
2018-07-24T13:41:01.892Z,39.80
2018-07-24T13:43:30.151Z,39.40
2018-07-24T13:45:58.551Z,39.80
2018-07-24T13:48:33.098Z,40.10
2018-07-24T13:51:01.361Z,39.70
2018-07-24T13:53:29.706Z,40.10
2018-07-24T13:55:57.978Z,40.30
2018-07-24T13:58:26.770Z,39.50
2018-07-24T14:00:55.234Z,39.70
2018-07-24T14:03:23.874Z,39.90
2018-07-24T14:05:52.517Z,39.70
2018-07-24T14:08:20.829Z,40.20
2018-07-24T14:10:49.746Z,40.10
2018-07-24T14:13:18.008Z,40.80
2018-07-24T14:15:46.303Z,40.80
2018-07-24T14:18:14.699Z,40.50
2018-07-24T14:20:42.971Z,41.40
2018-07-24T14:23:11.510Z,41.20
2018-07-24T14:25:39.760Z,41.50
2018-07-24T14:28:08.024Z,41.10
2018-07-24T14:30:36.278Z,40.40
2018-07-24T14:33:04.551Z,40.60
2018-07-24T14:35:32.839Z,40.70
2018-07-24T14:38:01.146Z,41.00
2018-07-24T14:40:29.519Z,40.80
2018-07-24T14:42:58.420Z,40.50
2018-07-24T14:45:27.030Z,41.00
2018-07-24T14:50:23.557Z,39.80
2018-07-24T14:52:51.929Z,39.70
2018-07-24T14:55:20.180Z,40.30
2018-07-24T14:57:48.466Z,38.90
2018-07-24T15:00:16.713Z,39.60
2018-07-24T15:02:44.992Z,39.10
2018-07-24T15:05:13.250Z,38.60
2018-07-24T15:07:41.526Z,38.80
2018-07-24T15:10:09.786Z,39.40
2018-07-24T15:15:06.081Z,38.90
2018-07-24T15:17:34.336Z,38.00
2018-07-24T15:20:02.805Z,38.10
2018-07-24T15:22:31.092Z,38.20
2018-07-24T15:24:59.350Z,38.10
2018-07-24T15:27:27.613Z,38.70
2018-07-24T15:29:55.849Z,38.80
2018-07-24T15:32:24.144Z,38.30
2018-07-24T15:34:52.518Z,38.70
2018-07-24T15:37:20.728Z,38.00
2018-07-24T15:39:48.988Z,37.70
2018-07-24T15:42:17.296Z,37.90
2018-07-24T15:44:45.553Z,38.40
2018-07-24T15:47:14.072Z,37.60
2018-07-24T15:49:42.347Z,37.40
2018-07-24T15:52:11.317Z,38.20
2018-07-24T15:54:39.542Z,37.30
2018-07-24T15:57:07.810Z,36.00
2018-07-24T15:59:36.434Z,35.90
2018-07-24T16:02:04.698Z,37.10
2018-07-24T16:04:32.993Z,36.60
2018-07-24T16:07:01.243Z,36.30
2018-07-24T16:09:29.528Z,37.00
2018-07-24T16:11:57.787Z,37.40
2018-07-24T16:14:26.075Z,37.50
2018-07-24T16:16:54.364Z,37.90
2018-07-24T16:19:22.695Z,37.40
2018-07-24T16:21:51.040Z,37.70
2018-07-24T16:24:19.293Z,36.70
2018-07-24T16:26:47.561Z,37.30
2018-07-24T16:29:15.877Z,37.80
2018-07-24T16:31:44.864Z,38.00
2018-07-24T16:34:13.174Z,38.00
2018-07-24T16:36:41.450Z,37.50
2018-07-24T16:39:11.135Z,37.50
2018-07-24T16:41:39.774Z,38.00
2018-07-24T16:44:08.102Z,37.30
2018-07-24T16:46:36.363Z,38.20
2018-07-24T16:49:04.767Z,37.70
2018-07-24T16:51:33.122Z,37.40
2018-07-24T16:54:01.404Z,37.50
2018-07-24T16:56:29.695Z,35.90
2018-07-24T16:58:58.008Z,35.80
2018-07-24T17:01:26.247Z,36.20
2018-07-24T17:03:54.529Z,36.20
2018-07-24T17:06:22.815Z,36.50
2018-07-24T17:08:51.094Z,36.60
2018-07-24T17:11:19.362Z,37.30
2018-07-24T17:13:47.959Z,38.30
2018-07-24T17:16:16.261Z,38.40
2018-07-24T17:18:44.553Z,38.20
2018-07-24T17:21:12.843Z,37.70
2018-07-24T17:23:41.177Z,37.70
2018-07-24T17:26:09.520Z,37.70
2018-07-24T17:28:37.928Z,38.40
2018-07-24T17:31:06.929Z,37.30
2018-07-24T17:33:35.200Z,37.10
2018-07-24T17:36:03.604Z,36.90
2018-07-24T17:38:31.942Z,36.90
2018-07-24T17:41:00.399Z,36.90
2018-07-24T17:43:28.698Z,36.80
2018-07-24T17:45:57.107Z,37.00
2018-07-24T17:48:25.454Z,37.10
2018-07-24T17:50:53.674Z,37.00
2018-07-24T17:53:21.940Z,37.60
2018-07-24T17:55:50.200Z,37.50
2018-07-24T17:58:18.522Z,37.40
2018-07-24T18:00:46.846Z,37.30
2018-07-24T18:03:15.124Z,37.50
2018-07-24T18:05:43.346Z,37.90
2018-07-24T18:08:11.783Z,39.70
2018-07-24T18:10:40.092Z,40.20
2018-07-24T18:13:08.367Z,41.30
2018-07-24T18:15:36.719Z,41.60
2018-07-24T18:18:04.936Z,41.40
2018-07-24T18:20:33.207Z,41.70
2018-07-24T18:23:01.509Z,40.70
2018-07-24T18:25:30.161Z,40.10
2018-07-24T18:27:58.405Z,39.60
2018-07-24T18:32:54.891Z,40.50
2018-07-24T18:35:23.226Z,41.70
2018-07-24T18:37:51.871Z,42.60
2018-07-24T18:40:20.149Z,43.20
2018-07-24T18:42:48.480Z,43.50
2018-07-24T18:45:16.749Z,43.00
2018-07-24T18:47:45.088Z,43.00
2018-07-24T18:50:13.357Z,43.30
2018-07-24T18:52:41.616Z,43.30
2018-07-24T18:55:09.935Z,43.70
2018-07-24T18:57:38.168Z,43.40
2018-07-24T19:00:06.486Z,43.10
2018-07-24T19:02:34.767Z,43.40
2018-07-24T19:05:03.103Z,44.20
2018-07-24T19:07:31.357Z,44.70
2018-07-24T19:09:59.869Z,44.80
2018-07-24T19:12:28.183Z,45.10
2018-07-24T19:14:56.449Z,45.40
2018-07-24T19:17:24.756Z,45.70
2018-07-24T19:19:53.006Z,46.30
2018-07-24T19:22:21.265Z,46.40
2018-07-24T19:24:49.526Z,46.30
2018-07-24T19:27:17.825Z,46.30
2018-07-24T19:29:46.086Z,46.30
2018-07-24T19:32:14.550Z,46.30
2018-07-24T19:34:42.838Z,46.90
2018-07-24T19:37:12.108Z,47.20
2018-07-24T19:39:40.350Z,47.20
2018-07-24T19:42:08.621Z,47.00
2018-07-24T19:44:36.942Z,47.00
2018-07-24T19:47:05.238Z,46.80
2018-07-24T19:49:33.555Z,47.80
2018-07-24T19:52:01.797Z,47.90
2018-07-24T19:54:31.234Z,48.20
2018-07-24T19:56:59.503Z,48.60
2018-07-24T19:59:27.770Z,48.60
2018-07-24T20:01:56.014Z,48.10
2018-07-24T20:04:24.299Z,48.70
2018-07-24T20:06:52.631Z,48.80
2018-07-24T20:09:20.927Z,49.00
2018-07-24T20:11:49.162Z,49.20
2018-07-24T20:14:17.415Z,49.60
2018-07-24T20:16:45.694Z,49.50
2018-07-24T20:19:13.985Z,49.20
2018-07-24T20:21:42.237Z,48.60
2018-07-24T20:24:10.491Z,48.70
2018-07-24T20:26:38.721Z,48.90
2018-07-24T20:29:07.133Z,49.50
2018-07-24T20:31:35.377Z,49.50
2018-07-24T20:34:03.637Z,49.70
2018-07-24T20:36:31.959Z,49.80
2018-07-24T20:39:00.262Z,49.90
2018-07-24T20:41:28.721Z,49.70
2018-07-24T20:43:57.006Z,49.50
2018-07-24T20:46:25.260Z,50.00
2018-07-24T20:48:53.564Z,50.00
2018-07-24T20:51:21.990Z,50.10
2018-07-24T20:53:50.311Z,50.30
2018-07-24T20:56:18.617Z,50.60
2018-07-24T20:58:46.870Z,50.60
2018-07-24T21:01:15.131Z,50.10
2018-07-24T21:03:43.406Z,50.00
2018-07-24T21:06:11.682Z,49.80
2018-07-24T21:08:39.926Z,50.00
2018-07-24T21:11:08.175Z,50.20
2018-07-24T21:13:36.442Z,50.40
2018-07-24T21:16:04.701Z,50.30
2018-07-24T21:18:32.988Z,50.00
2018-07-24T21:21:01.365Z,50.00
2018-07-24T21:23:29.639Z,50.40
2018-07-24T21:25:57.915Z,50.40
2018-07-24T21:28:26.152Z,51.00
2018-07-24T21:30:54.417Z,51.10
2018-07-24T21:33:22.748Z,51.30
2018-07-24T21:35:51.176Z,51.40
2018-07-24T21:40:47.396Z,52.20
2018-07-24T21:43:15.653Z,52.50
2018-07-24T21:45:43.917Z,52.80
2018-07-24T21:48:12.894Z,51.80
2018-07-24T21:50:41.176Z,51.70
2018-07-24T21:53:09.492Z,52.60
2018-07-24T21:55:37.742Z,52.50
2018-07-24T21:58:05.996Z,52.50
2018-07-24T22:00:36.323Z,52.80
2018-07-24T22:03:06.268Z,53.10
2018-07-24T22:05:34.550Z,53.00
2018-07-24T22:08:02.807Z,52.40
2018-07-24T22:10:31.049Z,52.70
2018-07-24T22:12:59.317Z,54.00
2018-07-24T22:15:27.928Z,53.50
2018-07-24T22:17:57.164Z,54.30
2018-07-24T22:20:25.524Z,54.20
2018-07-24T22:22:53.836Z,54.00
2018-07-24T22:25:22.075Z,54.30
2018-07-24T22:27:50.300Z,54.80
2018-07-24T22:30:18.556Z,54.30
2018-07-24T22:32:46.864Z,54.30
2018-07-24T22:35:15.121Z,54.10
2018-07-24T22:37:43.363Z,55.10
2018-07-24T22:40:12.112Z,54.40
2018-07-24T22:42:40.593Z,54.80
2018-07-24T22:45:09.429Z,54.70
2018-07-24T22:47:37.947Z,54.50
2018-07-24T22:50:06.626Z,54.50
2018-07-24T22:52:34.869Z,54.70
2018-07-24T22:55:03.104Z,54.40
2018-07-24T22:57:31.332Z,54.60
2018-07-24T22:59:59.601Z,54.60
2018-07-24T23:02:27.847Z,55.20
2018-07-24T23:04:56.069Z,55.60
2018-07-24T23:07:24.294Z,55.50
2018-07-24T23:09:52.542Z,55.10
2018-07-24T23:12:20.790Z,55.10
2018-07-24T23:14:49.044Z,55.60
2018-07-24T23:17:17.299Z,55.50
2018-07-24T23:19:45.537Z,55.40
2018-07-24T23:22:13.816Z,56.10
2018-07-24T23:24:42.057Z,55.50
2018-07-24T23:27:10.309Z,55.50
2018-07-24T23:29:38.864Z,55.70
2018-07-24T23:32:07.118Z,56.10
2018-07-24T23:34:35.353Z,56.80
2018-07-24T23:37:03.613Z,56.80
2018-07-24T23:39:32.693Z,56.80
2018-07-24T23:42:00.924Z,57.00
2018-07-24T23:44:29.184Z,57.10
2018-07-24T23:46:57.465Z,57.20
2018-07-24T23:49:25.666Z,57.80
2018-07-24T23:51:53.917Z,58.70
2018-07-24T23:54:22.157Z,58.30
2018-07-24T23:56:50.395Z,59.00
2018-07-24T23:59:18.639Z,58.50
